sensor_id;sensor_type;location;lat;lon;timestamp;P1;durP1;ratioP1;P2;durP2;ratioP2
20541;SDS011;10429;50.956;9.786;2022-09-30T00:01:02;30.93;;;8.20;;
20541;SDS011;10429;50.956;9.786;2022-09-30T00:03:28;71.30;;;9.30;;
20541;SDS011;10429;50.956;9.786;2022-09-30T00:05:57;67.80;;;9.50;;
20541;SDS011;10429;50.956;9.786;2022-09-30T00:08:25;58.83;;;9.93;;
20541;SDS011;10429;50.956;9.786;2022-09-30T00:11:01;71.40;;;9.63;;
20541;SDS011;10429;50.956;9.786;2022-09-30T00:13:29;118.37;;;9.87;;
20541;SDS011;10429;50.956;9.786;2022-09-30T00:15:55;63.47;;;8.80;;
20541;SDS011;10429;50.956;9.786;2022-09-30T00:18:21;77.00;;;9.13;;
20541;SDS011;10429;50.956;9.786;2022-09-30T00:20:47;66.60;;;9.80;;
20541;SDS011;10429;50.956;9.786;2022-09-30T00:23:13;75.03;;;9.60;;
20541;SDS011;10429;50.956;9.786;2022-09-30T00:25:39;58.17;;;10.03;;
20541;SDS011;10429;50.956;9.786;2022-09-30T00:28:07;90.77;;;9.97;;
20541;SDS011;10429;50.956;9.786;2022-09-30T00:30:33;49.27;;;9.33;;
20541;SDS011;10429;50.956;9.786;2022-09-30T00:33:02;57.03;;;9.83;;
20541;SDS011;10429;50.956;9.786;2022-09-30T00:35:28;38.47;;;8.30;;
20541;SDS011;10429;50.956;9.786;2022-09-30T00:37:54;20.83;;;7.20;;
20541;SDS011;10429;50.956;9.786;2022-09-30T00:40:20;36.47;;;7.77;;
20541;SDS011;10429;50.956;9.786;2022-09-30T00:42:46;25.07;;;6.93;;
20541;SDS011;10429;50.956;9.786;2022-09-30T00:45:13;35.33;;;7.57;;
20541;SDS011;10429;50.956;9.786;2022-09-30T00:52:37;20.33;;;8.00;;
20541;SDS011;10429;50.956;9.786;2022-09-30T00:55:04;90.13;;;10.17;;
20541;SDS011;10429;50.956;9.786;2022-09-30T00:57:32;46.80;;;9.37;;
20541;SDS011;10429;50.956;9.786;2022-09-30T00:59:58;57.97;;;8.97;;
20541;SDS011;10429;50.956;9.786;2022-09-30T01:02:25;66.17;;;8.43;;
20541;SDS011;10429;50.956;9.786;2022-09-30T01:04:51;90.87;;;9.53;;
20541;SDS011;10429;50.956;9.786;2022-09-30T01:07:18;39.07;;;8.87;;
20541;SDS011;10429;50.956;9.786;2022-09-30T01:09:45;159.07;;;11.50;;
20541;SDS011;10429;50.956;9.786;2022-09-30T01:12:15;57.37;;;8.80;;
20541;SDS011;10429;50.956;9.786;2022-09-30T01:14:43;103.87;;;9.17;;
20541;SDS011;10429;50.956;9.786;2022-09-30T01:30:40;30.67;;;7.03;;
20541;SDS011;10429;50.956;9.786;2022-09-30T01:35:55;38.10;;;8.73;;
20541;SDS011;10429;50.956;9.786;2022-09-30T01:38:27;62.50;;;9.00;;
20541;SDS011;10429;50.956;9.786;2022-09-30T01:41:03;74.93;;;9.40;;
20541;SDS011;10429;50.956;9.786;2022-09-30T01:51:34;87.63;;;9.27;;
20541;SDS011;10429;50.956;9.786;2022-09-30T01:54:04;43.53;;;8.63;;
20541;SDS011;10429;50.956;9.786;2022-09-30T01:56:34;79.40;;;9.17;;
20541;SDS011;10429;50.956;9.786;2022-09-30T01:59:04;52.07;;;8.90;;
20541;SDS011;10429;50.956;9.786;2022-09-30T02:01:54;115.33;;;10.00;;
20541;SDS011;10429;50.956;9.786;2022-09-30T02:04:38;106.40;;;8.93;;
20541;SDS011;10429;50.956;9.786;2022-09-30T02:07:08;109.73;;;10.03;;
20541;SDS011;10429;50.956;9.786;2022-09-30T02:09:44;115.63;;;9.70;;
20541;SDS011;10429;50.956;9.786;2022-09-30T02:12:14;52.53;;;8.73;;
20541;SDS011;10429;50.956;9.786;2022-09-30T02:14:41;46.20;;;7.67;;
20541;SDS011;10429;50.956;9.786;2022-09-30T02:17:09;71.87;;;9.07;;
20541;SDS011;10429;50.956;9.786;2022-09-30T02:22:10;60.97;;;9.93;;
20541;SDS011;10429;50.956;9.786;2022-09-30T02:24:38;75.90;;;9.83;;
20541;SDS011;10429;50.956;9.786;2022-09-30T02:27:05;53.93;;;9.10;;
20541;SDS011;10429;50.956;9.786;2022-09-30T02:29:36;52.07;;;8.80;;
20541;SDS011;10429;50.956;9.786;2022-09-30T02:32:07;55.63;;;9.20;;
20541;SDS011;10429;50.956;9.786;2022-09-30T02:34:35;69.20;;;9.80;;
20541;SDS011;10429;50.956;9.786;2022-09-30T02:39:40;37.83;;;7.03;;
20541;SDS011;10429;50.956;9.786;2022-09-30T02:42:10;33.57;;;6.83;;
20541;SDS011;10429;50.956;9.786;2022-09-30T02:44:39;41.20;;;7.37;;
20541;SDS011;10429;50.956;9.786;2022-09-30T02:47:17;27.63;;;7.63;;
20541;SDS011;10429;50.956;9.786;2022-09-30T02:50:33;32.33;;;6.93;;
20541;SDS011;10429;50.956;9.786;2022-09-30T02:52:41;27.73;;;6.77;;
20541;SDS011;10429;50.956;9.786;2022-09-30T02:55:20;35.40;;;7.30;;
20541;SDS011;10429;50.956;9.786;2022-09-30T03:00:33;33.00;;;6.90;;
20541;SDS011;10429;50.956;9.786;2022-09-30T03:03:01;25.57;;;7.80;;
20541;SDS011;10429;50.956;9.786;2022-09-30T03:05:29;47.03;;;7.80;;
20541;SDS011;10429;50.956;9.786;2022-09-30T03:07:55;32.73;;;7.57;;
20541;SDS011;10429;50.956;9.786;2022-09-30T03:10:22;58.27;;;8.70;;
20541;SDS011;10429;50.956;9.786;2022-09-30T03:13:02;58.37;;;9.10;;
20541;SDS011;10429;50.956;9.786;2022-09-30T03:18:31;69.63;;;9.13;;
20541;SDS011;10429;50.956;9.786;2022-09-30T03:26:27;59.03;;;8.20;;
20541;SDS011;10429;50.956;9.786;2022-09-30T03:34:17;30.93;;;6.00;;
20541;SDS011;10429;50.956;9.786;2022-09-30T03:42:07;21.70;;;6.77;;
20541;SDS011;10429;50.956;9.786;2022-09-30T03:44:39;32.77;;;6.77;;
20541;SDS011;10429;50.956;9.786;2022-09-30T03:47:07;28.53;;;7.57;;
20541;SDS011;10429;50.956;9.786;2022-09-30T03:49:35;26.10;;;7.07;;
20541;SDS011;10429;50.956;9.786;2022-09-30T03:52:04;27.80;;;6.87;;
20541;SDS011;10429;50.956;9.786;2022-09-30T03:54:30;23.07;;;6.27;;
20541;SDS011;10429;50.956;9.786;2022-09-30T03:56:57;38.33;;;6.67;;
20541;SDS011;10429;50.956;9.786;2022-09-30T03:59:27;32.30;;;6.60;;
20541;SDS011;10429;50.956;9.786;2022-09-30T04:01:53;59.93;;;7.53;;
20541;SDS011;10429;50.956;9.786;2022-09-30T04:04:21;23.90;;;6.80;;
20541;SDS011;10429;50.956;9.786;2022-09-30T04:06:49;22.73;;;6.43;;
20541;SDS011;10429;50.956;9.786;2022-09-30T04:09:15;22.90;;;6.87;;
20541;SDS011;10429;50.956;9.786;2022-09-30T04:11:41;31.73;;;7.03;;
20541;SDS011;10429;50.956;9.786;2022-09-30T04:14:07;46.43;;;8.00;;
20541;SDS011;10429;50.956;9.786;2022-09-30T04:16:33;79.00;;;8.67;;
20541;SDS011;10429;50.956;9.786;2022-09-30T04:19:00;80.60;;;9.10;;
20541;SDS011;10429;50.956;9.786;2022-09-30T04:21:26;57.13;;;8.00;;
20541;SDS011;10429;50.956;9.786;2022-09-30T04:23:53;59.80;;;8.40;;
20541;SDS011;10429;50.956;9.786;2022-09-30T04:26:19;112.30;;;9.07;;
20541;SDS011;10429;50.956;9.786;2022-09-30T04:28:47;45.17;;;7.40;;
20541;SDS011;10429;50.956;9.786;2022-09-30T04:31:14;31.10;;;7.97;;
20541;SDS011;10429;50.956;9.786;2022-09-30T04:33:41;46.00;;;7.70;;
20541;SDS011;10429;50.956;9.786;2022-09-30T04:36:09;38.40;;;7.23;;
20541;SDS011;10429;50.956;9.786;2022-09-30T04:38:35;30.47;;;7.13;;
20541;SDS011;10429;50.956;9.786;2022-09-30T04:41:02;16.80;;;6.17;;
20541;SDS011;10429;50.956;9.786;2022-09-30T04:43:29;16.73;;;5.93;;
20541;SDS011;10429;50.956;9.786;2022-09-30T04:45:58;29.43;;;6.03;;
20541;SDS011;10429;50.956;9.786;2022-09-30T04:48:24;14.13;;;5.53;;
20541;SDS011;10429;50.956;9.786;2022-09-30T04:50:52;10.27;;;6.00;;
20541;SDS011;10429;50.956;9.786;2022-09-30T04:53:18;13.30;;;5.17;;
20541;SDS011;10429;50.956;9.786;2022-09-30T04:55:44;13.07;;;5.27;;
20541;SDS011;10429;50.956;9.786;2022-09-30T04:58:11;18.10;;;5.90;;
20541;SDS011;10429;50.956;9.786;2022-09-30T05:00:37;18.57;;;5.73;;
20541;SDS011;10429;50.956;9.786;2022-09-30T05:03:06;15.73;;;5.83;;
20541;SDS011;10429;50.956;9.786;2022-09-30T05:05:32;12.80;;;5.80;;
20541;SDS011;10429;50.956;9.786;2022-09-30T05:07:59;19.90;;;5.87;;
20541;SDS011;10429;50.956;9.786;2022-09-30T05:10:25;13.03;;;5.80;;
20541;SDS011;10429;50.956;9.786;2022-09-30T05:12:51;10.77;;;5.80;;
20541;SDS011;10429;50.956;9.786;2022-09-30T05:15:18;10.27;;;6.10;;
20541;SDS011;10429;50.956;9.786;2022-09-30T05:17:44;14.43;;;5.63;;
20541;SDS011;10429;50.956;9.786;2022-09-30T05:20:13;17.40;;;6.07;;
20541;SDS011;10429;50.956;9.786;2022-09-30T05:22:39;10.23;;;5.80;;
20541;SDS011;10429;50.956;9.786;2022-09-30T05:25:05;14.07;;;6.60;;
20541;SDS011;10429;50.956;9.786;2022-09-30T05:27:34;15.97;;;6.27;;
20541;SDS011;10429;50.956;9.786;2022-09-30T05:30:02;15.47;;;6.07;;
20541;SDS011;10429;50.956;9.786;2022-09-30T05:32:30;19.60;;;6.03;;
20541;SDS011;10429;50.956;9.786;2022-09-30T05:34:59;21.93;;;6.57;;
20541;SDS011;10429;50.956;9.786;2022-09-30T05:37:27;18.77;;;6.40;;
20541;SDS011;10429;50.956;9.786;2022-09-30T05:39:53;24.87;;;6.63;;
20541;SDS011;10429;50.956;9.786;2022-09-30T05:42:19;17.87;;;6.10;;
20541;SDS011;10429;50.956;9.786;2022-09-30T05:44:45;16.53;;;5.50;;
20541;SDS011;10429;50.956;9.786;2022-09-30T05:47:11;18.20;;;5.97;;
20541;SDS011;10429;50.956;9.786;2022-09-30T05:49:37;21.40;;;6.20;;
20541;SDS011;10429;50.956;9.786;2022-09-30T05:52:05;17.17;;;6.67;;
20541;SDS011;10429;50.956;9.786;2022-09-30T05:54:31;20.17;;;6.27;;
20541;SDS011;10429;50.956;9.786;2022-09-30T05:56:57;21.57;;;5.50;;
20541;SDS011;10429;50.956;9.786;2022-09-30T05:59:26;28.83;;;6.43;;
20541;SDS011;10429;50.956;9.786;2022-09-30T06:01:52;37.87;;;7.10;;
20541;SDS011;10429;50.956;9.786;2022-09-30T06:04:18;28.10;;;6.93;;
20541;SDS011;10429;50.956;9.786;2022-09-30T06:06:45;27.57;;;7.47;;
20541;SDS011;10429;50.956;9.786;2022-09-30T06:09:12;32.20;;;7.27;;
20541;SDS011;10429;50.956;9.786;2022-09-30T06:11:38;35.40;;;6.90;;
20541;SDS011;10429;50.956;9.786;2022-09-30T06:14:06;27.50;;;6.40;;
20541;SDS011;10429;50.956;9.786;2022-09-30T06:16:32;43.13;;;7.57;;
20541;SDS011;10429;50.956;9.786;2022-09-30T06:18:58;50.30;;;7.00;;
20541;SDS011;10429;50.956;9.786;2022-09-30T06:21:24;27.53;;;7.00;;
20541;SDS011;10429;50.956;9.786;2022-09-30T06:23:52;62.23;;;7.70;;
20541;SDS011;10429;50.956;9.786;2022-09-30T06:26:18;37.53;;;7.03;;
20541;SDS011;10429;50.956;9.786;2022-09-30T06:28:44;46.03;;;7.70;;
20541;SDS011;10429;50.956;9.786;2022-09-30T06:31:10;41.90;;;6.90;;
20541;SDS011;10429;50.956;9.786;2022-09-30T06:33:36;44.47;;;7.00;;
20541;SDS011;10429;50.956;9.786;2022-09-30T06:36:03;74.87;;;8.37;;
20541;SDS011;10429;50.956;9.786;2022-09-30T06:38:30;57.77;;;8.13;;
20541;SDS011;10429;50.956;9.786;2022-09-30T06:40:57;54.50;;;7.03;;
20541;SDS011;10429;50.956;9.786;2022-09-30T06:43:23;68.10;;;7.90;;
20541;SDS011;10429;50.956;9.786;2022-09-30T06:45:49;53.33;;;7.33;;
20541;SDS011;10429;50.956;9.786;2022-09-30T06:48:16;43.80;;;7.37;;
20541;SDS011;10429;50.956;9.786;2022-09-30T06:50:43;40.70;;;7.00;;
20541;SDS011;10429;50.956;9.786;2022-09-30T06:53:10;40.33;;;7.20;;
20541;SDS011;10429;50.956;9.786;2022-09-30T06:55:36;49.37;;;7.40;;
20541;SDS011;10429;50.956;9.786;2022-09-30T06:58:04;36.10;;;6.47;;
20541;SDS011;10429;50.956;9.786;2022-09-30T07:00:32;32.47;;;7.03;;
20541;SDS011;10429;50.956;9.786;2022-09-30T07:02:58;34.10;;;6.60;;
20541;SDS011;10429;50.956;9.786;2022-09-30T07:05:24;30.40;;;7.53;;
20541;SDS011;10429;50.956;9.786;2022-09-30T07:07:50;38.23;;;6.53;;
20541;SDS011;10429;50.956;9.786;2022-09-30T07:10:17;27.23;;;6.30;;
20541;SDS011;10429;50.956;9.786;2022-09-30T07:12:43;16.40;;;6.07;;
20541;SDS011;10429;50.956;9.786;2022-09-30T07:15:09;31.73;;;6.30;;
20541;SDS011;10429;50.956;9.786;2022-09-30T07:17:35;15.33;;;6.37;;
20541;SDS011;10429;50.956;9.786;2022-09-30T07:20:01;11.00;;;6.23;;
20541;SDS011;10429;50.956;9.786;2022-09-30T07:22:29;18.47;;;6.27;;
20541;SDS011;10429;50.956;9.786;2022-09-30T07:24:56;12.63;;;6.40;;
20541;SDS011;10429;50.956;9.786;2022-09-30T07:27:23;31.57;;;7.63;;
20541;SDS011;10429;50.956;9.786;2022-09-30T07:29:49;33.53;;;7.27;;
20541;SDS011;10429;50.956;9.786;2022-09-30T07:32:15;39.87;;;8.27;;
20541;SDS011;10429;50.956;9.786;2022-09-30T07:34:43;46.07;;;7.57;;
20541;SDS011;10429;50.956;9.786;2022-09-30T07:37:10;19.60;;;6.67;;
20541;SDS011;10429;50.956;9.786;2022-09-30T07:39:38;20.57;;;6.87;;
20541;SDS011;10429;50.956;9.786;2022-09-30T07:42:04;18.17;;;7.93;;
20541;SDS011;10429;50.956;9.786;2022-09-30T07:44:32;19.90;;;7.87;;
20541;SDS011;10429;50.956;9.786;2022-09-30T07:47:01;36.83;;;7.67;;
20541;SDS011;10429;50.956;9.786;2022-09-30T07:49:27;19.70;;;7.10;;
20541;SDS011;10429;50.956;9.786;2022-09-30T07:51:57;14.00;;;7.93;;
20541;SDS011;10429;50.956;9.786;2022-09-30T07:54:25;27.07;;;7.60;;
20541;SDS011;10429;50.956;9.786;2022-09-30T07:56:52;13.73;;;8.40;;
20541;SDS011;10429;50.956;9.786;2022-09-30T07:59:19;14.07;;;7.17;;
20541;SDS011;10429;50.956;9.786;2022-09-30T08:01:45;15.17;;;7.00;;
20541;SDS011;10429;50.956;9.786;2022-09-30T08:04:11;10.43;;;7.50;;
20541;SDS011;10429;50.956;9.786;2022-09-30T08:06:39;11.93;;;8.13;;
20541;SDS011;10429;50.956;9.786;2022-09-30T08:09:05;10.93;;;8.90;;
20541;SDS011;10429;50.956;9.786;2022-09-30T08:11:32;19.83;;;8.97;;
20541;SDS011;10429;50.956;9.786;2022-09-30T08:13:58;20.90;;;7.83;;
20541;SDS011;10429;50.956;9.786;2022-09-30T08:16:24;12.90;;;7.70;;
20541;SDS011;10429;50.956;9.786;2022-09-30T08:18:57;16.10;;;8.73;;
20541;SDS011;10429;50.956;9.786;2022-09-30T08:21:24;13.33;;;7.80;;
20541;SDS011;10429;50.956;9.786;2022-09-30T08:23:50;17.53;;;7.53;;
20541;SDS011;10429;50.956;9.786;2022-09-30T08:26:16;15.20;;;8.10;;
20541;SDS011;10429;50.956;9.786;2022-09-30T08:28:43;10.70;;;8.97;;
20541;SDS011;10429;50.956;9.786;2022-09-30T08:31:13;9.13;;;7.60;;
20541;SDS011;10429;50.956;9.786;2022-09-30T08:33:40;10.20;;;7.37;;
20541;SDS011;10429;50.956;9.786;2022-09-30T08:36:07;8.83;;;8.00;;
20541;SDS011;10429;50.956;9.786;2022-09-30T08:38:33;10.37;;;8.17;;
20541;SDS011;10429;50.956;9.786;2022-09-30T08:46:13;10.17;;;7.80;;
20541;SDS011;10429;50.956;9.786;2022-09-30T08:51:30;8.40;;;7.50;;
20541;SDS011;10429;50.956;9.786;2022-09-30T08:54:02;8.77;;;7.87;;
20541;SDS011;10429;50.956;9.786;2022-09-30T08:56:30;7.77;;;7.07;;
20541;SDS011;10429;50.956;9.786;2022-09-30T08:59:09;10.60;;;7.97;;
20541;SDS011;10429;50.956;9.786;2022-09-30T09:01:42;11.43;;;7.50;;
20541;SDS011;10429;50.956;9.786;2022-09-30T09:04:09;9.90;;;6.53;;
20541;SDS011;10429;50.956;9.786;2022-09-30T09:06:41;6.93;;;6.33;;
20541;SDS011;10429;50.956;9.786;2022-09-30T09:14:20;7.10;;;6.13;;
20541;SDS011;10429;50.956;9.786;2022-09-30T09:19:19;6.33;;;5.70;;
20541;SDS011;10429;50.956;9.786;2022-09-30T09:24:23;6.47;;;5.87;;
20541;SDS011;10429;50.956;9.786;2022-09-30T09:26:50;6.70;;;6.10;;
20541;SDS011;10429;50.956;9.786;2022-09-30T09:31:46;6.43;;;5.83;;
20541;SDS011;10429;50.956;9.786;2022-09-30T09:34:12;6.43;;;5.77;;
20541;SDS011;10429;50.956;9.786;2022-09-30T09:39:13;6.73;;;6.17;;
20541;SDS011;10429;50.956;9.786;2022-09-30T09:42:02;8.17;;;6.50;;
20541;SDS011;10429;50.956;9.786;2022-09-30T09:44:34;5.17;;;4.77;;
20541;SDS011;10429;50.956;9.786;2022-09-30T09:47:03;5.00;;;4.70;;
20541;SDS011;10429;50.956;9.786;2022-09-30T09:49:31;5.20;;;4.70;;
20541;SDS011;10429;50.956;9.786;2022-09-30T09:54:39;5.53;;;5.03;;
20541;SDS011;10429;50.956;9.786;2022-09-30T09:57:09;5.57;;;4.30;;
20541;SDS011;10429;50.956;9.786;2022-09-30T09:59:36;4.50;;;3.93;;
20541;SDS011;10429;50.956;9.786;2022-09-30T10:02:20;4.43;;;3.93;;
20541;SDS011;10429;50.956;9.786;2022-09-30T10:04:47;4.43;;;4.13;;
20541;SDS011;10429;50.956;9.786;2022-09-30T10:07:17;5.17;;;4.67;;
20541;SDS011;10429;50.956;9.786;2022-09-30T10:09:44;4.63;;;4.23;;
20541;SDS011;10429;50.956;9.786;2022-09-30T10:14:59;4.33;;;3.93;;
20541;SDS011;10429;50.956;9.786;2022-09-30T10:20:00;5.43;;;4.37;;
20541;SDS011;10429;50.956;9.786;2022-09-30T10:22:30;4.80;;;4.40;;
20541;SDS011;10429;50.956;9.786;2022-09-30T10:25:16;5.57;;;4.50;;
20541;SDS011;10429;50.956;9.786;2022-09-30T10:30:12;4.73;;;4.30;;
20541;SDS011;10429;50.956;9.786;2022-09-30T10:32:38;4.10;;;3.53;;
20541;SDS011;10429;50.956;9.786;2022-09-30T10:35:05;4.03;;;3.73;;
20541;SDS011;10429;50.956;9.786;2022-09-30T10:37:32;4.90;;;3.80;;
20541;SDS011;10429;50.956;9.786;2022-09-30T10:40:02;5.30;;;4.70;;
20541;SDS011;10429;50.956;9.786;2022-09-30T10:42:29;6.30;;;4.93;;
20541;SDS011;10429;50.956;9.786;2022-09-30T10:44:58;6.03;;;5.10;;
20541;SDS011;10429;50.956;9.786;2022-09-30T10:47:26;5.33;;;4.93;;
20541;SDS011;10429;50.956;9.786;2022-09-30T10:50:00;5.80;;;4.80;;
20541;SDS011;10429;50.956;9.786;2022-09-30T10:52:34;7.60;;;5.13;;
20541;SDS011;10429;50.956;9.786;2022-09-30T10:55:05;4.53;;;4.13;;
20541;SDS011;10429;50.956;9.786;2022-09-30T10:57:32;4.20;;;3.90;;
20541;SDS011;10429;50.956;9.786;2022-09-30T11:02:28;6.07;;;5.07;;
20541;SDS011;10429;50.956;9.786;2022-09-30T11:07:26;8.17;;;7.00;;
20541;SDS011;10429;50.956;9.786;2022-09-30T11:09:56;11.63;;;9.33;;
20541;SDS011;10429;50.956;9.786;2022-09-30T11:12:34;10.57;;;9.33;;
20541;SDS011;10429;50.956;9.786;2022-09-30T11:15:11;10.57;;;9.27;;
20541;SDS011;10429;50.956;9.786;2022-09-30T11:17:46;9.37;;;7.77;;
20541;SDS011;10429;50.956;9.786;2022-09-30T11:20:25;5.20;;;4.80;;
20541;SDS011;10429;50.956;9.786;2022-09-30T11:43:54;4.40;;;3.63;;
20541;SDS011;10429;50.956;9.786;2022-09-30T11:56:31;3.70;;;3.40;;
20541;SDS011;10429;50.956;9.786;2022-09-30T11:58:59;4.63;;;3.20;;
20541;SDS011;10429;50.956;9.786;2022-09-30T12:01:35;3.93;;;3.10;;
20541;SDS011;10429;50.956;9.786;2022-09-30T12:04:48;3.73;;;3.20;;
20541;SDS011;10429;50.956;9.786;2022-09-30T12:06:56;3.70;;;2.87;;
20541;SDS011;10429;50.956;9.786;2022-09-30T12:09:25;2.23;;;2.00;;
20541;SDS011;10429;50.956;9.786;2022-09-30T12:12:02;4.77;;;2.30;;
20541;SDS011;10429;50.956;9.786;2022-09-30T12:14:35;2.80;;;2.23;;
20541;SDS011;10429;50.956;9.786;2022-09-30T12:17:06;2.40;;;2.20;;
20541;SDS011;10429;50.956;9.786;2022-09-30T12:19:37;3.77;;;2.33;;
20541;SDS011;10429;50.956;9.786;2022-09-30T12:22:08;3.87;;;2.70;;
20541;SDS011;10429;50.956;9.786;2022-09-30T12:24:37;4.73;;;2.50;;
20541;SDS011;10429;50.956;9.786;2022-09-30T12:27:04;3.60;;;2.60;;
20541;SDS011;10429;50.956;9.786;2022-09-30T12:29:50;2.87;;;2.60;;
20541;SDS011;10429;50.956;9.786;2022-09-30T12:35:29;3.47;;;2.97;;
20541;SDS011;10429;50.956;9.786;2022-09-30T12:46:03;3.87;;;2.40;;
20541;SDS011;10429;50.956;9.786;2022-09-30T12:48:55;4.47;;;2.70;;
20541;SDS011;10429;50.956;9.786;2022-09-30T12:51:40;2.50;;;2.30;;
20541;SDS011;10429;50.956;9.786;2022-09-30T12:54:12;3.10;;;2.57;;
20541;SDS011;10429;50.956;9.786;2022-09-30T12:56:43;4.50;;;3.33;;
20541;SDS011;10429;50.956;9.786;2022-09-30T12:59:11;2.90;;;2.60;;
20541;SDS011;10429;50.956;9.786;2022-09-30T13:01:40;3.27;;;2.20;;
20541;SDS011;10429;50.956;9.786;2022-09-30T13:09:21;2.83;;;2.63;;
20541;SDS011;10429;50.956;9.786;2022-09-30T13:14:35;2.93;;;2.73;;
20541;SDS011;10429;50.956;9.786;2022-09-30T13:29:58;2.33;;;2.13;;
20541;SDS011;10429;50.956;9.786;2022-09-30T13:32:32;2.50;;;2.30;;
20541;SDS011;10429;50.956;9.786;2022-09-30T13:34:58;2.50;;;2.30;;
20541;SDS011;10429;50.956;9.786;2022-09-30T13:37:32;2.97;;;1.90;;
20541;SDS011;10429;50.956;9.786;2022-09-30T13:39:58;4.30;;;2.30;;
20541;SDS011;10429;50.956;9.786;2022-09-30T13:42:25;3.00;;;2.70;;
20541;SDS011;10429;50.956;9.786;2022-09-30T13:50:19;4.97;;;3.47;;
20541;SDS011;10429;50.956;9.786;2022-09-30T13:52:50;3.50;;;3.03;;
20541;SDS011;10429;50.956;9.786;2022-09-30T13:55:22;3.37;;;3.07;;
20541;SDS011;10429;50.956;9.786;2022-09-30T14:03:31;3.83;;;3.53;;
20541;SDS011;10429;50.956;9.786;2022-09-30T14:06:12;3.87;;;3.10;;
20541;SDS011;10429;50.956;9.786;2022-09-30T14:11:25;3.63;;;2.90;;
20541;SDS011;10429;50.956;9.786;2022-09-30T14:21:47;4.20;;;3.60;;
20541;SDS011;10429;50.956;9.786;2022-09-30T14:24:15;3.40;;;2.90;;
20541;SDS011;10429;50.956;9.786;2022-09-30T14:29:38;3.87;;;2.83;;
20541;SDS011;10429;50.956;9.786;2022-09-30T14:34:57;4.07;;;3.67;;
20541;SDS011;10429;50.956;9.786;2022-09-30T14:39:50;3.40;;;2.87;;
20541;SDS011;10429;50.956;9.786;2022-09-30T14:42:22;5.27;;;3.20;;
20541;SDS011;10429;50.956;9.786;2022-09-30T14:44:50;5.73;;;2.90;;
20541;SDS011;10429;50.956;9.786;2022-09-30T14:47:26;4.40;;;3.20;;
20541;SDS011;10429;50.956;9.786;2022-09-30T14:49:52;2.53;;;2.23;;
20541;SDS011;10429;50.956;9.786;2022-09-30T14:55:24;5.20;;;4.73;;
20541;SDS011;10429;50.956;9.786;2022-09-30T14:57:54;2.87;;;2.60;;
20541;SDS011;10429;50.956;9.786;2022-09-30T15:00:40;4.30;;;2.40;;
20541;SDS011;10429;50.956;9.786;2022-09-30T15:03:09;4.83;;;2.60;;
20541;SDS011;10429;50.956;9.786;2022-09-30T15:05:35;2.87;;;2.53;;
20541;SDS011;10429;50.956;9.786;2022-09-30T15:08:01;3.40;;;2.50;;
20541;SDS011;10429;50.956;9.786;2022-09-30T15:10:27;3.77;;;1.97;;
20541;SDS011;10429;50.956;9.786;2022-09-30T15:12:57;3.57;;;2.40;;
20541;SDS011;10429;50.956;9.786;2022-09-30T15:17:52;3.00;;;2.70;;
20541;SDS011;10429;50.956;9.786;2022-09-30T15:22:48;2.50;;;2.30;;
20541;SDS011;10429;50.956;9.786;2022-09-30T15:25:15;5.00;;;2.30;;
20541;SDS011;10429;50.956;9.786;2022-09-30T15:27:42;2.40;;;2.10;;
20541;SDS011;10429;50.956;9.786;2022-09-30T15:32:43;4.87;;;2.80;;
20541;SDS011;10429;50.956;9.786;2022-09-30T15:35:18;2.50;;;2.00;;
20541;SDS011;10429;50.956;9.786;2022-09-30T15:37:47;6.60;;;3.40;;
20541;SDS011;10429;50.956;9.786;2022-09-30T15:40:14;4.10;;;2.40;;
20541;SDS011;10429;50.956;9.786;2022-09-30T15:43:01;4.80;;;2.60;;
20541;SDS011;10429;50.956;9.786;2022-09-30T15:55:42;3.20;;;2.67;;
20541;SDS011;10429;50.956;9.786;2022-09-30T16:01:12;3.73;;;2.77;;
20541;SDS011;10429;50.956;9.786;2022-09-30T16:04:01;5.47;;;3.63;;
20541;SDS011;10429;50.956;9.786;2022-09-30T16:06:27;3.67;;;2.97;;
20541;SDS011;10429;50.956;9.786;2022-09-30T16:08:59;3.10;;;2.80;;
20541;SDS011;10429;50.956;9.786;2022-09-30T16:11:30;6.90;;;3.30;;
20541;SDS011;10429;50.956;9.786;2022-09-30T16:13:58;3.17;;;2.67;;
20541;SDS011;10429;50.956;9.786;2022-09-30T16:16:25;3.33;;;2.70;;
20541;SDS011;10429;50.956;9.786;2022-09-30T16:18:53;4.10;;;2.80;;
20541;SDS011;10429;50.956;9.786;2022-09-30T16:21:31;3.23;;;2.80;;
20541;SDS011;10429;50.956;9.786;2022-09-30T16:26:52;2.77;;;2.47;;
20541;SDS011;10429;50.956;9.786;2022-09-30T16:29:22;4.20;;;2.93;;
20541;SDS011;10429;50.956;9.786;2022-09-30T16:31:49;2.40;;;2.07;;
20541;SDS011;10429;50.956;9.786;2022-09-30T16:36:48;3.13;;;2.83;;
20541;SDS011;10429;50.956;9.786;2022-09-30T16:39:15;3.97;;;3.33;;
20541;SDS011;10429;50.956;9.786;2022-09-30T16:41:41;4.47;;;2.83;;
20541;SDS011;10429;50.956;9.786;2022-09-30T16:44:08;5.07;;;4.20;;
20541;SDS011;10429;50.956;9.786;2022-09-30T16:46:34;6.40;;;4.70;;
20541;SDS011;10429;50.956;9.786;2022-09-30T16:49:04;7.67;;;4.83;;
20541;SDS011;10429;50.956;9.786;2022-09-30T16:51:35;8.37;;;5.83;;
20541;SDS011;10429;50.956;9.786;2022-09-30T16:54:01;6.93;;;5.70;;
20541;SDS011;10429;50.956;9.786;2022-09-30T16:56:28;5.97;;;4.83;;
20541;SDS011;10429;50.956;9.786;2022-09-30T16:58:55;6.17;;;3.80;;
20541;SDS011;10429;50.956;9.786;2022-09-30T17:01:21;3.63;;;3.33;;
20541;SDS011;10429;50.956;9.786;2022-09-30T17:03:48;4.83;;;3.13;;
20541;SDS011;10429;50.956;9.786;2022-09-30T17:06:15;4.30;;;2.70;;
20541;SDS011;10429;50.956;9.786;2022-09-30T17:08:47;4.73;;;2.50;;
20541;SDS011;10429;50.956;9.786;2022-09-30T17:11:13;3.70;;;3.40;;
20541;SDS011;10429;50.956;9.786;2022-09-30T17:13:39;7.00;;;4.00;;
20541;SDS011;10429;50.956;9.786;2022-09-30T17:16:06;9.97;;;6.00;;
20541;SDS011;10429;50.956;9.786;2022-09-30T17:18:32;8.70;;;5.37;;
20541;SDS011;10429;50.956;9.786;2022-09-30T17:20:58;7.37;;;4.90;;
20541;SDS011;10429;50.956;9.786;2022-09-30T17:23:25;7.03;;;5.07;;
20541;SDS011;10429;50.956;9.786;2022-09-30T17:25:51;6.77;;;5.37;;
20541;SDS011;10429;50.956;9.786;2022-09-30T17:28:18;8.00;;;5.17;;
20541;SDS011;10429;50.956;9.786;2022-09-30T17:30:47;4.47;;;3.80;;
20541;SDS011;10429;50.956;9.786;2022-09-30T17:33:14;4.83;;;3.43;;
20541;SDS011;10429;50.956;9.786;2022-09-30T17:35:41;5.70;;;3.07;;
20541;SDS011;10429;50.956;9.786;2022-09-30T17:38:08;4.67;;;3.40;;
20541;SDS011;10429;50.956;9.786;2022-09-30T17:40:34;4.10;;;3.20;;
20541;SDS011;10429;50.956;9.786;2022-09-30T17:43:19;5.17;;;4.20;;
20541;SDS011;10429;50.956;9.786;2022-09-30T17:45:45;5.13;;;3.80;;
20541;SDS011;10429;50.956;9.786;2022-09-30T17:48:13;3.73;;;3.33;;
20541;SDS011;10429;50.956;9.786;2022-09-30T17:50:40;2.83;;;2.60;;
20541;SDS011;10429;50.956;9.786;2022-09-30T17:53:08;4.03;;;3.73;;
20541;SDS011;10429;50.956;9.786;2022-09-30T17:55:37;4.47;;;3.30;;
20541;SDS011;10429;50.956;9.786;2022-09-30T17:58:03;4.30;;;3.80;;
20541;SDS011;10429;50.956;9.786;2022-09-30T18:00:29;4.87;;;3.93;;
20541;SDS011;10429;50.956;9.786;2022-09-30T18:02:55;3.43;;;3.17;;
20541;SDS011;10429;50.956;9.786;2022-09-30T18:05:21;5.37;;;3.70;;
20541;SDS011;10429;50.956;9.786;2022-09-30T18:07:49;3.63;;;2.80;;
20541;SDS011;10429;50.956;9.786;2022-09-30T18:10:15;4.83;;;2.80;;
20541;SDS011;10429;50.956;9.786;2022-09-30T18:12:41;3.07;;;2.50;;
20541;SDS011;10429;50.956;9.786;2022-09-30T18:15:07;4.13;;;2.40;;
20541;SDS011;10429;50.956;9.786;2022-09-30T18:17:34;2.50;;;2.23;;
20541;SDS011;10429;50.956;9.786;2022-09-30T18:20:00;2.90;;;2.40;;
20541;SDS011;10429;50.956;9.786;2022-09-30T18:22:26;3.67;;;3.00;;
20541;SDS011;10429;50.956;9.786;2022-09-30T18:24:52;3.63;;;3.00;;
20541;SDS011;10429;50.956;9.786;2022-09-30T18:27:36;4.63;;;3.20;;